sensor_id;sensor_type;location;lat;lon;timestamp;P1;durP1;ratioP1;P2;durP2;ratioP2
6053;SDS011;3055;50.886;14.814;2023-04-24T00:00:19;13.70;;;10.50;;
6053;SDS011;3055;50.886;14.814;2023-04-24T00:02:46;13.90;;;10.37;;
6053;SDS011;3055;50.886;14.814;2023-04-24T00:05:14;14.57;;;10.53;;
6053;SDS011;3055;50.886;14.814;2023-04-24T00:07:42;12.20;;;10.03;;
6053;SDS011;3055;50.886;14.814;2023-04-24T00:10:10;11.53;;;9.60;;
6053;SDS011;3055;50.886;14.814;2023-04-24T00:12:39;13.23;;;10.33;;
6053;SDS011;3055;50.886;14.814;2023-04-24T00:15:07;12.67;;;10.10;;
6053;SDS011;3055;50.886;14.814;2023-04-24T00:17:34;11.50;;;9.77;;
6053;SDS011;3055;50.886;14.814;2023-04-24T00:20:02;15.97;;;12.23;;
6053;SDS011;3055;50.886;14.814;2023-04-24T00:22:31;14.60;;;12.20;;
6053;SDS011;3055;50.886;14.814;2023-04-24T00:24:59;14.73;;;11.83;;
6053;SDS011;3055;50.886;14.814;2023-04-24T00:27:26;16.37;;;13.13;;
6053;SDS011;3055;50.886;14.814;2023-04-24T00:29:54;16.03;;;13.37;;
6053;SDS011;3055;50.886;14.814;2023-04-24T00:32:21;15.30;;;12.10;;
6053;SDS011;3055;50.886;14.814;2023-04-24T00:34:48;11.93;;;10.13;;
6053;SDS011;3055;50.886;14.814;2023-04-24T00:37:15;11.00;;;9.90;;
6053;SDS011;3055;50.886;14.814;2023-04-24T00:39:42;9.27;;;8.37;;
6053;SDS011;3055;50.886;14.814;2023-04-24T00:42:09;9.47;;;7.63;;
6053;SDS011;3055;50.886;14.814;2023-04-24T00:44:36;10.10;;;8.87;;
6053;SDS011;3055;50.886;14.814;2023-04-24T00:47:06;9.23;;;8.30;;
6053;SDS011;3055;50.886;14.814;2023-04-24T00:49:34;8.90;;;7.97;;
6053;SDS011;3055;50.886;14.814;2023-04-24T00:52:01;11.00;;;9.10;;
6053;SDS011;3055;50.886;14.814;2023-04-24T00:54:32;10.17;;;9.10;;
6053;SDS011;3055;50.886;14.814;2023-04-24T00:56:59;8.70;;;7.77;;
6053;SDS011;3055;50.886;14.814;2023-04-24T00:59:27;10.00;;;9.00;;
6053;SDS011;3055;50.886;14.814;2023-04-24T01:01:54;10.23;;;9.13;;
6053;SDS011;3055;50.886;14.814;2023-04-24T01:04:23;10.10;;;9.10;;
6053;SDS011;3055;50.886;14.814;2023-04-24T01:06:52;10.30;;;9.20;;
6053;SDS011;3055;50.886;14.814;2023-04-24T01:09:21;11.53;;;8.67;;
6053;SDS011;3055;50.886;14.814;2023-04-24T01:11:49;10.43;;;8.60;;
6053;SDS011;3055;50.886;14.814;2023-04-24T01:14:16;9.07;;;8.20;;
6053;SDS011;3055;50.886;14.814;2023-04-24T01:16:43;7.37;;;6.67;;
6053;SDS011;3055;50.886;14.814;2023-04-24T01:19:10;8.00;;;7.20;;
6053;SDS011;3055;50.886;14.814;2023-04-24T01:21:39;7.80;;;7.10;;
6053;SDS011;3055;50.886;14.814;2023-04-24T01:24:09;9.10;;;6.97;;
6053;SDS011;3055;50.886;14.814;2023-04-24T01:26:36;6.83;;;6.23;;
6053;SDS011;3055;50.886;14.814;2023-04-24T01:29:03;8.23;;;7.43;;
6053;SDS011;3055;50.886;14.814;2023-04-24T01:31:30;7.07;;;6.47;;
6053;SDS011;3055;50.886;14.814;2023-04-24T01:33:59;8.00;;;7.20;;
6053;SDS011;3055;50.886;14.814;2023-04-24T01:36:26;7.67;;;6.97;;
6053;SDS011;3055;50.886;14.814;2023-04-24T01:38:54;7.27;;;6.50;;
6053;SDS011;3055;50.886;14.814;2023-04-24T01:41:23;8.93;;;8.10;;
6053;SDS011;3055;50.886;14.814;2023-04-24T01:43:51;8.37;;;7.13;;
6053;SDS011;3055;50.886;14.814;2023-04-24T01:46:18;7.97;;;7.17;;
6053;SDS011;3055;50.886;14.814;2023-04-24T01:48:45;9.70;;;8.70;;
6053;SDS011;3055;50.886;14.814;2023-04-24T01:51:12;7.77;;;6.90;;
6053;SDS011;3055;50.886;14.814;2023-04-24T01:53:39;8.30;;;7.10;;
6053;SDS011;3055;50.886;14.814;2023-04-24T01:56:06;7.33;;;6.73;;
6053;SDS011;3055;50.886;14.814;2023-04-24T01:58:35;11.80;;;7.50;;
6053;SDS011;3055;50.886;14.814;2023-04-24T02:01:02;7.30;;;6.47;;
6053;SDS011;3055;50.886;14.814;2023-04-24T02:03:29;7.60;;;6.27;;
6053;SDS011;3055;50.886;14.814;2023-04-24T02:05:56;6.60;;;6.00;;
6053;SDS011;3055;50.886;14.814;2023-04-24T02:08:23;6.27;;;5.67;;
6053;SDS011;3055;50.886;14.814;2023-04-24T02:10:50;6.10;;;5.50;;
6053;SDS011;3055;50.886;14.814;2023-04-24T02:13:17;7.17;;;6.47;;
6053;SDS011;3055;50.886;14.814;2023-04-24T02:15:46;8.77;;;6.40;;
6053;SDS011;3055;50.886;14.814;2023-04-24T02:18:13;6.43;;;5.83;;
6053;SDS011;3055;50.886;14.814;2023-04-24T02:20:40;6.37;;;5.77;;
6053;SDS011;3055;50.886;14.814;2023-04-24T02:23:07;6.70;;;6.10;;
6053;SDS011;3055;50.886;14.814;2023-04-24T02:25:34;5.73;;;5.23;;
6053;SDS011;3055;50.886;14.814;2023-04-24T02:28:01;6.60;;;6.00;;
6053;SDS011;3055;50.886;14.814;2023-04-24T02:30:28;7.50;;;6.70;;
6053;SDS011;3055;50.886;14.814;2023-04-24T02:32:57;6.70;;;6.10;;
6053;SDS011;3055;50.886;14.814;2023-04-24T02:35:24;6.77;;;6.07;;
6053;SDS011;3055;50.886;14.814;2023-04-24T02:37:51;6.27;;;5.67;;
6053;SDS011;3055;50.886;14.814;2023-04-24T02:40:17;6.87;;;6.17;;
6053;SDS011;3055;50.886;14.814;2023-04-24T02:42:44;6.53;;;5.93;;
6053;SDS011;3055;50.886;14.814;2023-04-24T02:45:11;6.53;;;5.93;;
6053;SDS011;3055;50.886;14.814;2023-04-24T02:47:38;6.37;;;5.77;;
6053;SDS011;3055;50.886;14.814;2023-04-24T02:50:07;5.80;;;5.20;;
6053;SDS011;3055;50.886;14.814;2023-04-24T02:52:35;9.50;;;6.07;;
6053;SDS011;3055;50.886;14.814;2023-04-24T02:55:02;7.00;;;6.40;;
6053;SDS011;3055;50.886;14.814;2023-04-24T02:57:29;7.10;;;6.40;;
6053;SDS011;3055;50.886;14.814;2023-04-24T02:59:56;9.43;;;6.77;;
6053;SDS011;3055;50.886;14.814;2023-04-24T03:02:23;6.77;;;6.17;;
6053;SDS011;3055;50.886;14.814;2023-04-24T03:04:50;7.63;;;6.47;;
6053;SDS011;3055;50.886;14.814;2023-04-24T03:07:19;7.57;;;6.43;;
6053;SDS011;3055;50.886;14.814;2023-04-24T03:09:46;6.30;;;5.70;;
6053;SDS011;3055;50.886;14.814;2023-04-24T03:12:13;6.70;;;6.00;;
6053;SDS011;3055;50.886;14.814;2023-04-24T03:14:42;7.70;;;5.77;;
6053;SDS011;3055;50.886;14.814;2023-04-24T03:17:09;7.43;;;6.73;;
6053;SDS011;3055;50.886;14.814;2023-04-24T03:19:36;7.20;;;6.13;;
6053;SDS011;3055;50.886;14.814;2023-04-24T03:22:03;7.10;;;6.40;;
6053;SDS011;3055;50.886;14.814;2023-04-24T03:24:31;6.97;;;5.67;;
6053;SDS011;3055;50.886;14.814;2023-04-24T03:26:58;8.00;;;6.23;;
6053;SDS011;3055;50.886;14.814;2023-04-24T03:29:25;7.00;;;6.40;;
6053;SDS011;3055;50.886;14.814;2023-04-24T03:31:52;6.90;;;6.30;;
6053;SDS011;3055;50.886;14.814;2023-04-24T03:34:19;7.63;;;5.90;;
6053;SDS011;3055;50.886;14.814;2023-04-24T03:36:46;5.73;;;5.23;;
6053;SDS011;3055;50.886;14.814;2023-04-24T03:39:13;6.40;;;5.73;;
6053;SDS011;3055;50.886;14.814;2023-04-24T03:41:42;6.97;;;6.10;;
6053;SDS011;3055;50.886;14.814;2023-04-24T03:44:09;6.20;;;5.60;;
6053;SDS011;3055;50.886;14.814;2023-04-24T03:46:36;7.23;;;6.20;;
6053;SDS011;3055;50.886;14.814;2023-04-24T03:49:03;7.07;;;5.80;;
6053;SDS011;3055;50.886;14.814;2023-04-24T03:51:30;8.60;;;5.90;;
6053;SDS011;3055;50.886;14.814;2023-04-24T03:53:57;6.33;;;5.73;;
6053;SDS011;3055;50.886;14.814;2023-04-24T03:56:24;6.83;;;5.90;;
6053;SDS011;3055;50.886;14.814;2023-04-24T03:58:52;7.60;;;6.10;;
6053;SDS011;3055;50.886;14.814;2023-04-24T04:01:19;7.13;;;6.30;;
6053;SDS011;3055;50.886;14.814;2023-04-24T04:03:46;6.77;;;6.00;;
6053;SDS011;3055;50.886;14.814;2023-04-24T04:06:13;7.03;;;6.37;;
6053;SDS011;3055;50.886;14.814;2023-04-24T04:08:40;6.90;;;6.00;;
6053;SDS011;3055;50.886;14.814;2023-04-24T04:11:07;7.53;;;6.47;;
6053;SDS011;3055;50.886;14.814;2023-04-24T04:13:34;9.33;;;6.10;;
6053;SDS011;3055;50.886;14.814;2023-04-24T04:16:03;6.83;;;5.70;;
6053;SDS011;3055;50.886;14.814;2023-04-24T04:18:30;6.20;;;5.60;;
6053;SDS011;3055;50.886;14.814;2023-04-24T04:20:57;6.70;;;6.00;;
6053;SDS011;3055;50.886;14.814;2023-04-24T04:23:26;6.10;;;5.50;;
6053;SDS011;3055;50.886;14.814;2023-04-24T04:25:53;6.90;;;6.20;;
6053;SDS011;3055;50.886;14.814;2023-04-24T04:28:21;6.47;;;5.87;;
6053;SDS011;3055;50.886;14.814;2023-04-24T04:30:49;6.00;;;5.50;;
6053;SDS011;3055;50.886;14.814;2023-04-24T04:33:20;6.17;;;5.57;;
6053;SDS011;3055;50.886;14.814;2023-04-24T04:35:47;6.57;;;5.03;;
6053;SDS011;3055;50.886;14.814;2023-04-24T04:38:14;7.03;;;5.40;;
6053;SDS011;3055;50.886;14.814;2023-04-24T04:40:41;8.47;;;5.73;;
6053;SDS011;3055;50.886;14.814;2023-04-24T04:43:08;5.90;;;5.30;;
6053;SDS011;3055;50.886;14.814;2023-04-24T04:45:36;7.40;;;6.70;;
6053;SDS011;3055;50.886;14.814;2023-04-24T04:48:05;8.07;;;7.10;;
6053;SDS011;3055;50.886;14.814;2023-04-24T04:50:35;9.77;;;7.70;;
6053;SDS011;3055;50.886;14.814;2023-04-24T04:53:02;8.87;;;7.53;;
6053;SDS011;3055;50.886;14.814;2023-04-24T04:55:29;8.70;;;7.13;;
6053;SDS011;3055;50.886;14.814;2023-04-24T04:57:56;8.93;;;6.90;;
6053;SDS011;3055;50.886;14.814;2023-04-24T05:00:25;7.83;;;7.10;;
6053;SDS011;3055;50.886;14.814;2023-04-24T05:02:54;7.67;;;6.70;;
6053;SDS011;3055;50.886;14.814;2023-04-24T05:05:20;7.27;;;5.70;;
6053;SDS011;3055;50.886;14.814;2023-04-24T05:07:49;6.60;;;5.77;;
6053;SDS011;3055;50.886;14.814;2023-04-24T05:10:16;6.77;;;6.13;;
6053;SDS011;3055;50.886;14.814;2023-04-24T05:12:43;6.97;;;6.37;;
6053;SDS011;3055;50.886;14.814;2023-04-24T05:15:10;7.33;;;5.93;;
6053;SDS011;3055;50.886;14.814;2023-04-24T05:17:37;7.30;;;6.30;;
6053;SDS011;3055;50.886;14.814;2023-04-24T05:20:06;6.70;;;6.00;;
6053;SDS011;3055;50.886;14.814;2023-04-24T05:22:34;6.93;;;6.23;;
6053;SDS011;3055;50.886;14.814;2023-04-24T05:25:03;8.93;;;6.23;;
6053;SDS011;3055;50.886;14.814;2023-04-24T05:27:30;8.47;;;6.10;;
6053;SDS011;3055;50.886;14.814;2023-04-24T05:29:57;7.83;;;5.67;;
6053;SDS011;3055;50.886;14.814;2023-04-24T05:32:24;7.80;;;6.30;;
6053;SDS011;3055;50.886;14.814;2023-04-24T05:34:52;7.43;;;5.37;;
6053;SDS011;3055;50.886;14.814;2023-04-24T05:37:19;6.30;;;5.33;;
6053;SDS011;3055;50.886;14.814;2023-04-24T05:39:46;6.20;;;5.60;;
6053;SDS011;3055;50.886;14.814;2023-04-24T05:42:14;6.77;;;6.17;;
6053;SDS011;3055;50.886;14.814;2023-04-24T05:44:41;6.33;;;5.30;;
6053;SDS011;3055;50.886;14.814;2023-04-24T05:47:08;6.10;;;4.90;;
6053;SDS011;3055;50.886;14.814;2023-04-24T05:49:35;5.63;;;5.00;;
6053;SDS011;3055;50.886;14.814;2023-04-24T05:52:02;5.53;;;4.83;;
6053;SDS011;3055;50.886;14.814;2023-04-24T05:54:31;4.70;;;4.30;;
6053;SDS011;3055;50.886;14.814;2023-04-24T05:56:58;5.87;;;5.07;;
6053;SDS011;3055;50.886;14.814;2023-04-24T05:59:30;6.27;;;4.93;;
6053;SDS011;3055;50.886;14.814;2023-04-24T06:01:57;5.13;;;4.27;;
6053;SDS011;3055;50.886;14.814;2023-04-24T06:04:24;4.90;;;4.40;;
6053;SDS011;3055;50.886;14.814;2023-04-24T06:06:52;5.27;;;4.77;;
6053;SDS011;3055;50.886;14.814;2023-04-24T06:09:21;4.90;;;4.40;;
6053;SDS011;3055;50.886;14.814;2023-04-24T06:11:48;5.33;;;4.93;;
6053;SDS011;3055;50.886;14.814;2023-04-24T06:14:17;5.50;;;5.00;;
6053;SDS011;3055;50.886;14.814;2023-04-24T06:16:46;4.90;;;4.50;;
6053;SDS011;3055;50.886;14.814;2023-04-24T06:19:13;5.27;;;4.40;;
6053;SDS011;3055;50.886;14.814;2023-04-24T06:21:40;4.57;;;4.17;;
6053;SDS011;3055;50.886;14.814;2023-04-24T06:24:07;5.43;;;4.87;;
6053;SDS011;3055;50.886;14.814;2023-04-24T06:26:34;5.97;;;4.57;;
6053;SDS011;3055;50.886;14.814;2023-04-24T06:29:02;5.40;;;4.90;;
6053;SDS011;3055;50.886;14.814;2023-04-24T06:31:28;5.20;;;4.70;;
6053;SDS011;3055;50.886;14.814;2023-04-24T06:34:01;5.37;;;4.87;;
6053;SDS011;3055;50.886;14.814;2023-04-24T06:36:28;5.37;;;4.87;;
6053;SDS011;3055;50.886;14.814;2023-04-24T06:38:56;4.93;;;4.37;;
6053;SDS011;3055;50.886;14.814;2023-04-24T06:41:23;4.73;;;4.33;;
6053;SDS011;3055;50.886;14.814;2023-04-24T06:43:50;5.53;;;4.60;;
6053;SDS011;3055;50.886;14.814;2023-04-24T06:46:17;4.43;;;4.03;;
6053;SDS011;3055;50.886;14.814;2023-04-24T06:48:47;4.90;;;4.50;;
6053;SDS011;3055;50.886;14.814;2023-04-24T06:51:15;5.30;;;4.50;;
6053;SDS011;3055;50.886;14.814;2023-04-24T06:53:43;4.70;;;4.30;;
6053;SDS011;3055;50.886;14.814;2023-04-24T06:56:10;9.30;;;8.03;;
6053;SDS011;3055;50.886;14.814;2023-04-24T06:58:37;7.10;;;5.50;;
6053;SDS011;3055;50.886;14.814;2023-04-24T07:01:04;5.77;;;4.97;;
6053;SDS011;3055;50.886;14.814;2023-04-24T07:03:31;5.20;;;4.80;;
6053;SDS011;3055;50.886;14.814;2023-04-24T07:05:58;5.60;;;5.03;;
6053;SDS011;3055;50.886;14.814;2023-04-24T07:08:27;6.43;;;5.83;;
6053;SDS011;3055;50.886;14.814;2023-04-24T07:10:55;5.77;;;5.03;;
6053;SDS011;3055;50.886;14.814;2023-04-24T07:13:22;13.07;;;11.77;;
6053;SDS011;3055;50.886;14.814;2023-04-24T07:15:50;5.47;;;4.97;;
6053;SDS011;3055;50.886;14.814;2023-04-24T07:18:19;6.27;;;5.73;;
6053;SDS011;3055;50.886;14.814;2023-04-24T07:20:46;7.03;;;6.13;;
6053;SDS011;3055;50.886;14.814;2023-04-24T07:23:15;5.43;;;4.93;;
6053;SDS011;3055;50.886;14.814;2023-04-24T07:25:43;6.23;;;5.43;;
6053;SDS011;3055;50.886;14.814;2023-04-24T07:28:10;7.77;;;7.00;;
6053;SDS011;3055;50.886;14.814;2023-04-24T07:30:37;5.70;;;5.20;;
6053;SDS011;3055;50.886;14.814;2023-04-24T07:33:04;6.57;;;5.97;;
6053;SDS011;3055;50.886;14.814;2023-04-24T07:35:32;6.17;;;5.57;;
6053;SDS011;3055;50.886;14.814;2023-04-24T07:37:59;5.97;;;5.47;;
6053;SDS011;3055;50.886;14.814;2023-04-24T07:40:26;6.27;;;5.67;;
6053;SDS011;3055;50.886;14.814;2023-04-24T07:42:55;7.10;;;6.40;;
6053;SDS011;3055;50.886;14.814;2023-04-24T07:45:22;7.57;;;6.80;;
6053;SDS011;3055;50.886;14.814;2023-04-24T07:47:51;6.87;;;6.17;;
6053;SDS011;3055;50.886;14.814;2023-04-24T07:50:18;7.53;;;6.30;;
6053;SDS011;3055;50.886;14.814;2023-04-24T07:52:45;8.03;;;7.20;;
6053;SDS011;3055;50.886;14.814;2023-04-24T07:55:12;8.83;;;7.10;;
6053;SDS011;3055;50.886;14.814;2023-04-24T07:57:39;7.23;;;6.53;;
6053;SDS011;3055;50.886;14.814;2023-04-24T08:00:09;7.13;;;6.43;;
6053;SDS011;3055;50.886;14.814;2023-04-24T08:02:36;7.90;;;6.90;;
6053;SDS011;3055;50.886;14.814;2023-04-24T08:05:04;8.80;;;7.50;;
6053;SDS011;3055;50.886;14.814;2023-04-24T08:07:31;7.87;;;7.13;;
6053;SDS011;3055;50.886;14.814;2023-04-24T08:09:58;7.30;;;6.60;;
6053;SDS011;3055;50.886;14.814;2023-04-24T08:12:25;7.90;;;7.13;;
6053;SDS011;3055;50.886;14.814;2023-04-24T08:14:54;7.30;;;6.63;;
6053;SDS011;3055;50.886;14.814;2023-04-24T08:17:23;6.63;;;6.13;;
6053;SDS011;3055;50.886;14.814;2023-04-24T08:19:50;6.43;;;5.83;;
6053;SDS011;3055;50.886;14.814;2023-04-24T08:22:24;6.57;;;5.80;;
6053;SDS011;3055;50.886;14.814;2023-04-24T08:24:51;5.37;;;4.63;;
6053;SDS011;3055;50.886;14.814;2023-04-24T08:27:18;5.80;;;5.17;;
6053;SDS011;3055;50.886;14.814;2023-04-24T08:29:45;6.90;;;5.43;;
6053;SDS011;3055;50.886;14.814;2023-04-24T08:32:13;6.23;;;5.70;;
6053;SDS011;3055;50.886;14.814;2023-04-24T08:34:41;5.53;;;5.00;;
6053;SDS011;3055;50.886;14.814;2023-04-24T08:37:08;5.93;;;5.43;;
6053;SDS011;3055;50.886;14.814;2023-04-24T08:39:36;5.87;;;5.27;;
6053;SDS011;3055;50.886;14.814;2023-04-24T08:42:03;5.53;;;5.03;;
6053;SDS011;3055;50.886;14.814;2023-04-24T08:44:33;5.47;;;4.53;;
6053;SDS011;3055;50.886;14.814;2023-04-24T08:47:02;5.93;;;5.40;;
6053;SDS011;3055;50.886;14.814;2023-04-24T08:49:29;5.87;;;5.27;;
6053;SDS011;3055;50.886;14.814;2023-04-24T08:51:58;6.27;;;5.67;;
6053;SDS011;3055;50.886;14.814;2023-04-24T08:54:26;5.73;;;5.23;;
6053;SDS011;3055;50.886;14.814;2023-04-24T08:56:53;7.03;;;6.00;;
6053;SDS011;3055;50.886;14.814;2023-04-24T08:59:21;8.33;;;5.83;;
6053;SDS011;3055;50.886;14.814;2023-04-24T09:01:48;6.20;;;5.43;;
6053;SDS011;3055;50.886;14.814;2023-04-24T09:04:17;6.00;;;5.50;;
6053;SDS011;3055;50.886;14.814;2023-04-24T09:06:47;6.47;;;5.80;;
6053;SDS011;3055;50.886;14.814;2023-04-24T09:09:16;6.00;;;5.50;;
6053;SDS011;3055;50.886;14.814;2023-04-24T09:11:44;6.50;;;5.90;;
6053;SDS011;3055;50.886;14.814;2023-04-24T09:14:11;5.37;;;4.87;;
6053;SDS011;3055;50.886;14.814;2023-04-24T09:16:39;5.37;;;4.87;;
6053;SDS011;3055;50.886;14.814;2023-04-24T09:19:06;6.07;;;5.03;;
6053;SDS011;3055;50.886;14.814;2023-04-24T09:21:33;5.30;;;4.90;;
6053;SDS011;3055;50.886;14.814;2023-04-24T09:24:02;5.70;;;5.20;;
6053;SDS011;3055;50.886;14.814;2023-04-24T09:26:32;5.60;;;5.13;;
6053;SDS011;3055;50.886;14.814;2023-04-24T09:29:01;5.83;;;5.33;;
6053;SDS011;3055;50.886;14.814;2023-04-24T09:31:30;6.10;;;5.60;;
6053;SDS011;3055;50.886;14.814;2023-04-24T09:33:57;6.33;;;5.83;;
6053;SDS011;3055;50.886;14.814;2023-04-24T09:36:29;6.10;;;5.60;;
6053;SDS011;3055;50.886;14.814;2023-04-24T09:38:58;6.10;;;5.33;;
6053;SDS011;3055;50.886;14.814;2023-04-24T09:41:26;5.97;;;5.23;;
6053;SDS011;3055;50.886;14.814;2023-04-24T09:43:55;6.03;;;5.47;;
6053;SDS011;3055;50.886;14.814;2023-04-24T09:46:29;5.87;;;4.97;;
6053;SDS011;3055;50.886;14.814;2023-04-24T09:49:02;4.13;;;3.83;;
6053;SDS011;3055;50.886;14.814;2023-04-24T09:51:35;5.27;;;4.77;;
6053;SDS011;3055;50.886;14.814;2023-04-24T09:54:03;5.47;;;5.07;;
6053;SDS011;3055;50.886;14.814;2023-04-24T09:56:39;5.77;;;5.30;;
6053;SDS011;3055;50.886;14.814;2023-04-24T09:59:11;5.20;;;4.83;;
6053;SDS011;3055;50.886;14.814;2023-04-24T10:01:39;5.40;;;4.90;;
6053;SDS011;3055;50.886;14.814;2023-04-24T10:04:18;5.70;;;4.97;;
6053;SDS011;3055;50.886;14.814;2023-04-24T10:06:48;5.60;;;4.93;;
6053;SDS011;3055;50.886;14.814;2023-04-24T10:09:16;5.10;;;4.70;;
6053;SDS011;3055;50.886;14.814;2023-04-24T10:11:45;5.30;;;4.90;;
6053;SDS011;3055;50.886;14.814;2023-04-24T10:14:15;5.40;;;4.90;;
6053;SDS011;3055;50.886;14.814;2023-04-24T10:16:43;4.83;;;4.43;;
6053;SDS011;3055;50.886;14.814;2023-04-24T10:19:12;4.80;;;4.20;;
6053;SDS011;3055;50.886;14.814;2023-04-24T10:21:40;4.77;;;4.27;;
6053;SDS011;3055;50.886;14.814;2023-04-24T10:24:11;4.60;;;4.27;;
6053;SDS011;3055;50.886;14.814;2023-04-24T10:26:38;4.73;;;4.30;;
6053;SDS011;3055;50.886;14.814;2023-04-24T10:29:07;5.47;;;4.83;;
6053;SDS011;3055;50.886;14.814;2023-04-24T10:31:39;4.57;;;4.17;;
6053;SDS011;3055;50.886;14.814;2023-04-24T10:34:07;5.10;;;4.40;;
6053;SDS011;3055;50.886;14.814;2023-04-24T10:36:36;4.97;;;4.57;;
6053;SDS011;3055;50.886;14.814;2023-04-24T10:39:07;4.57;;;4.20;;
6053;SDS011;3055;50.886;14.814;2023-04-24T10:41:37;4.63;;;4.23;;
6053;SDS011;3055;50.886;14.814;2023-04-24T10:44:05;4.87;;;4.53;;
6053;SDS011;3055;50.886;14.814;2023-04-24T10:46:32;4.90;;;4.50;;
6053;SDS011;3055;50.886;14.814;2023-04-24T10:49:01;5.03;;;4.63;;
6053;SDS011;3055;50.886;14.814;2023-04-24T10:54:27;4.30;;;3.90;;
6053;SDS011;3055;50.886;14.814;2023-04-24T11:00:09;2.77;;;2.57;;
6053;SDS011;3055;50.886;14.814;2023-04-24T11:02:40;2.67;;;2.47;;
6053;SDS011;3055;50.886;14.814;2023-04-24T11:05:15;2.57;;;2.37;;
6053;SDS011;3055;50.886;14.814;2023-04-24T11:10:40;2.60;;;2.40;;
6053;SDS011;3055;50.886;14.814;2023-04-24T11:13:09;2.43;;;1.90;;
6053;SDS011;3055;50.886;14.814;2023-04-24T11:15:36;2.40;;;2.20;;
6053;SDS011;3055;50.886;14.814;2023-04-24T11:18:03;5.30;;;4.60;;
6053;SDS011;3055;50.886;14.814;2023-04-24T11:20:32;2.97;;;2.70;;
6053;SDS011;3055;50.886;14.814;2023-04-24T11:23:03;2.20;;;1.90;;
6053;SDS011;3055;50.886;14.814;2023-04-24T11:25:31;2.07;;;1.80;;
6053;SDS011;3055;50.886;14.814;2023-04-24T11:28:08;6.13;;;1.93;;
6053;SDS011;3055;50.886;14.814;2023-04-24T11:30:42;2.77;;;2.57;;
6053;SDS011;3055;50.886;14.814;2023-04-24T11:33:09;4.60;;;2.47;;
6053;SDS011;3055;50.886;14.814;2023-04-24T11:35:40;3.40;;;3.10;;
6053;SDS011;3055;50.886;14.814;2023-04-24T11:38:07;2.90;;;2.70;;
6053;SDS011;3055;50.886;14.814;2023-04-24T11:40:37;3.10;;;2.80;;
6053;SDS011;3055;50.886;14.814;2023-04-24T11:43:04;3.93;;;2.57;;
6053;SDS011;3055;50.886;14.814;2023-04-24T11:45:32;3.00;;;2.47;;
6053;SDS011;3055;50.886;14.814;2023-04-24T11:47:59;3.93;;;2.80;;
6053;SDS011;3055;50.886;14.814;2023-04-24T11:50:26;4.90;;;2.50;;
6053;SDS011;3055;50.886;14.814;2023-04-24T11:52:55;2.67;;;2.30;;
6053;SDS011;3055;50.886;14.814;2023-04-24T11:55:24;2.83;;;2.63;;
6053;SDS011;3055;50.886;14.814;2023-04-24T11:57:53;3.07;;;2.87;;
6053;SDS011;3055;50.886;14.814;2023-04-24T12:00:22;2.90;;;2.70;;
6053;SDS011;3055;50.886;14.814;2023-04-24T12:02:51;2.97;;;2.77;;
6053;SDS011;3055;50.886;14.814;2023-04-24T12:05:21;3.00;;;2.70;;
6053;SDS011;3055;50.886;14.814;2023-04-24T12:07:49;3.87;;;3.00;;
6053;SDS011;3055;50.886;14.814;2023-04-24T12:10:21;3.90;;;3.30;;
6053;SDS011;3055;50.886;14.814;2023-04-24T12:12:49;3.03;;;2.73;;
6053;SDS011;3055;50.886;14.814;2023-04-24T12:15:16;3.00;;;2.50;;
6053;SDS011;3055;50.886;14.814;2023-04-24T12:17:44;2.90;;;2.70;;
6053;SDS011;3055;50.886;14.814;2023-04-24T12:20:12;3.10;;;2.90;;
6053;SDS011;3055;50.886;14.814;2023-04-24T12:22:44;5.33;;;2.87;;
6053;SDS011;3055;50.886;14.814;2023-04-24T12:25:12;2.63;;;2.40;;
6053;SDS011;3055;50.886;14.814;2023-04-24T12:27:41;2.60;;;2.40;;
6053;SDS011;3055;50.886;14.814;2023-04-24T12:30:10;2.97;;;2.63;;
6053;SDS011;3055;50.886;14.814;2023-04-24T12:32:41;3.03;;;2.10;;
6053;SDS011;3055;50.886;14.814;2023-04-24T12:35:09;3.23;;;2.47;;
6053;SDS011;3055;50.886;14.814;2023-04-24T12:37:36;3.20;;;2.57;;
6053;SDS011;3055;50.886;14.814;2023-04-24T12:40:05;2.10;;;2.00;;
6053;SDS011;3055;50.886;14.814;2023-04-24T12:42:34;2.43;;;2.23;;
6053;SDS011;3055;50.886;14.814;2023-04-24T12:45:03;2.87;;;2.53;;
6053;SDS011;3055;50.886;14.814;2023-04-24T12:47:32;2.27;;;1.93;;
6053;SDS011;3055;50.886;14.814;2023-04-24T12:50:00;3.37;;;1.97;;
6053;SDS011;3055;50.886;14.814;2023-04-24T12:52:28;7.00;;;3.50;;
6053;SDS011;3055;50.886;14.814;2023-04-24T12:54:57;2.77;;;2.30;;
6053;SDS011;3055;50.886;14.814;2023-04-24T12:57:25;1.90;;;1.77;;
6053;SDS011;3055;50.886;14.814;2023-04-24T12:59:53;22.20;;;15.67;;
6053;SDS011;3055;50.886;14.814;2023-04-24T13:02:22;5.60;;;4.20;;
6053;SDS011;3055;50.886;14.814;2023-04-24T13:04:50;2.57;;;2.30;;
6053;SDS011;3055;50.886;14.814;2023-04-24T13:07:17;4.23;;;3.50;;
6053;SDS011;3055;50.886;14.814;2023-04-24T13:09:44;3.33;;;2.53;;
6053;SDS011;3055;50.886;14.814;2023-04-24T13:12:13;4.67;;;4.03;;
6053;SDS011;3055;50.886;14.814;2023-04-24T13:14:40;2.57;;;2.23;;
6053;SDS011;3055;50.886;14.814;2023-04-24T13:17:07;2.63;;;2.13;;
6053;SDS011;3055;50.886;14.814;2023-04-24T13:19:38;1.47;;;1.37;;
6053;SDS011;3055;50.886;14.814;2023-04-24T13:22:06;2.57;;;2.03;;
6053;SDS011;3055;50.886;14.814;2023-04-24T13:24:35;1.50;;;1.40;;
6053;SDS011;3055;50.886;14.814;2023-04-24T13:27:02;2.07;;;1.57;;
6053;SDS011;3055;50.886;14.814;2023-04-24T13:29:30;2.50;;;1.30;;
6053;SDS011;3055;50.886;14.814;2023-04-24T13:31:57;1.70;;;1.60;;
6053;SDS011;3055;50.886;14.814;2023-04-24T13:34:24;1.80;;;1.53;;
6053;SDS011;3055;50.886;14.814;2023-04-24T13:36:54;3.20;;;1.80;;
6053;SDS011;3055;50.886;14.814;2023-04-24T13:39:22;1.80;;;1.70;;
6053;SDS011;3055;50.886;14.814;2023-04-24T13:41:50;2.07;;;1.70;;
6053;SDS011;3055;50.886;14.814;2023-04-24T13:44:17;1.90;;;1.80;;
6053;SDS011;3055;50.886;14.814;2023-04-24T13:46:46;2.07;;;1.87;;
6053;SDS011;3055;50.886;14.814;2023-04-24T13:49:14;2.97;;;1.60;;
6053;SDS011;3055;50.886;14.814;2023-04-24T13:51:42;1.93;;;1.73;;
6053;SDS011;3055;50.886;14.814;2023-04-24T13:54:10;2.90;;;2.23;;
6053;SDS011;3055;50.886;14.814;2023-04-24T13:56:38;2.67;;;2.00;;
6053;SDS011;3055;50.886;14.814;2023-04-24T13:59:06;2.67;;;2.47;;
6053;SDS011;3055;50.886;14.814;2023-04-24T14:01:33;4.27;;;2.47;;
6053;SDS011;3055;50.886;14.814;2023-04-24T14:04:00;3.57;;;3.27;;
6053;SDS011;3055;50.886;14.814;2023-04-24T14:06:27;1.90;;;1.70;;
6053;SDS011;3055;50.886;14.814;2023-04-24T14:08:54;2.77;;;2.00;;
6053;SDS011;3055;50.886;14.814;2023-04-24T14:11:23;4.00;;;2.50;;
6053;SDS011;3055;50.886;14.814;2023-04-24T14:13:50;1.83;;;1.73;;
6053;SDS011;3055;50.886;14.814;2023-04-24T14:16:17;1.53;;;1.30;;
6053;SDS011;3055;50.886;14.814;2023-04-24T14:18:44;1.40;;;1.30;;
6053;SDS011;3055;50.886;14.814;2023-04-24T14:21:11;1.20;;;1.10;;
6053;SDS011;3055;50.886;14.814;2023-04-24T14:23:38;0.90;;;0.90;;
6053;SDS011;3055;50.886;14.814;2023-04-24T14:26:05;2.80;;;1.20;;
6053;SDS011;3055;50.886;14.814;2023-04-24T14:28:33;1.57;;;1.20;;
6053;SDS011;3055;50.886;14.814;2023-04-24T14:31:00;2.50;;;1.40;;
6053;SDS011;3055;50.886;14.814;2023-04-24T14:33:28;2.03;;;1.20;;
6053;SDS011;3055;50.886;14.814;2023-04-24T14:35:55;1.73;;;1.63;;
6053;SDS011;3055;50.886;14.814;2023-04-24T14:38:22;2.30;;;1.83;;
6053;SDS011;3055;50.886;14.814;2023-04-24T14:40:49;4.50;;;2.47;;
6053;SDS011;3055;50.886;14.814;2023-04-24T14:43:16;5.93;;;3.20;;
6053;SDS011;3055;50.886;14.814;2023-04-24T14:45:44;4.03;;;3.17;;
6053;SDS011;3055;50.886;14.814;2023-04-24T14:48:11;6.90;;;3.40;;
6053;SDS011;3055;50.886;14.814;2023-04-24T14:50:38;3.57;;;2.50;;
6053;SDS011;3055;50.886;14.814;2023-04-24T14:53:05;3.83;;;2.70;;
6053;SDS011;3055;50.886;14.814;2023-04-24T14:55:32;2.53;;;2.00;;
6053;SDS011;3055;50.886;14.814;2023-04-24T14:58:01;4.97;;;3.60;;
6053;SDS011;3055;50.886;14.814;2023-04-24T15:00:28;3.97;;;2.60;;
6053;SDS011;3055;50.886;14.814;2023-04-24T15:02:57;6.47;;;2.33;;
6053;SDS011;3055;50.886;14.814;2023-04-24T15:05:24;3.17;;;2.40;;
6053;SDS011;3055;50.886;14.814;2023-04-24T15:07:51;4.50;;;2.97;;
6053;SDS011;3055;50.886;14.814;2023-04-24T15:10:18;2.63;;;2.43;;
6053;SDS011;3055;50.886;14.814;2023-04-24T15:12:47;5.87;;;3.77;;